Time;durP1;ratioP1;P1;durP2;ratioP2;P2;SDS_P1;SDS_P2;PMS_P1;PMS_P2;Temp;Humidity;BMP_temperature;BMP_pressure;BME280_temperature;BME280_humidity;BME280_pressure;Samples;Min_cycle;Max_cycle;Signal;HPM_P1;HPM_P2
2021/01/18 00:01:18;;;;;;;38.65;12.35;;;4.80;99.90;;;;;;4980400;28;20209;-86
2021/01/18 00:03:44;;;;;;;27.15;11.05;;;4.80;99.90;;;;;;4980671;28;20363;-85
2021/01/18 00:06:14;;;;;;;28.23;10.40;;;4.90;99.90;;;;;;4986982;28;20275;-85
2021/01/18 00:08:40;;;;;;;23.15;9.95;;;4.80;99.90;;;;;;4973710;28;20204;-85
2021/01/18 00:11:06;;;;;;;31.73;12.52;;;4.80;99.90;;;;;;4980672;28;20579;-84
2021/01/18 00:13:34;;;;;;;25.10;11.43;;;4.90;99.90;;;;;;4980744;28;20199;-86
2021/01/18 00:16:00;;;;;;;32.13;11.32;;;4.90;99.90;;;;;;4980000;28;20231;-86
2021/01/18 00:18:26;;;;;;;28.50;11.60;;;4.80;99.90;;;;;;4980183;28;20208;-86
2021/01/18 00:20:54;;;;;;;22.98;10.15;;;4.80;99.90;;;;;;4980066;28;20255;-86
2021/01/18 00:23:20;;;;;;;25.98;9.90;;;4.80;99.90;;;;;;4980014;28;20222;-86
2021/01/18 00:25:46;;;;;;;19.90;10.73;;;4.80;99.90;;;;;;4980748;28;20245;-83
2021/01/18 00:28:12;;;;;;;27.98;12.50;;;4.90;99.90;;;;;;4979694;28;20215;-86
2021/01/18 00:30:40;;;;;;;28.30;12.23;;;4.90;99.90;;;;;;4980489;28;20208;-85
2021/01/18 00:33:06;;;;;;;39.47;16.00;;;4.90;99.90;;;;;;4980451;28;20571;-85
2021/01/18 00:35:32;;;;;;;32.15;14.55;;;4.90;99.90;;;;;;4980318;28;20221;-82
2021/01/18 00:37:59;;;;;;;34.83;16.52;;;4.90;99.90;;;;;;4980120;28;20190;-86
2021/01/18 00:40:26;;;;;;;35.10;12.93;;;4.90;99.90;;;;;;4980368;28;20303;-87
2021/01/18 00:42:53;;;;;;;28.70;13.32;;;4.90;99.90;;;;;;4980137;28;20223;-85
2021/01/18 00:45:22;;;;;;;31.17;13.52;;;4.90;99.90;;;;;;4979895;28;20707;-85
2021/01/18 00:47:50;;;;;;;28.27;12.18;;;4.80;99.90;;;;;;4979978;28;20205;-85
2021/01/18 00:50:19;;;;;;;22.88;13.73;;;4.80;99.90;;;;;;4979647;28;20213;-85
2021/01/18 00:52:47;;;;;;;26.40;12.60;;;4.80;99.90;;;;;;4979735;28;20193;-86
2021/01/18 00:55:16;;;;;;;34.38;14.70;;;4.80;99.90;;;;;;4979720;28;20224;-86
2021/01/18 00:57:43;;;;;;;34.75;13.20;;;4.80;99.90;;;;;;4979442;28;20239;-86
2021/01/18 01:00:11;;;;;;;22.23;13.43;;;4.70;99.90;;;;;;4979820;28;20200;-85
2021/01/18 01:02:38;;;;;;;32.03;13.75;;;4.70;99.90;;;;;;4983278;28;20265;-84
2021/01/18 01:05:07;;;;;;;37.22;15.73;;;4.70;99.90;;;;;;4995942;28;20224;-85
2021/01/18 01:07:37;;;;;;;34.40;16.00;;;4.70;99.90;;;;;;4984139;28;20205;-87
2021/01/18 01:10:05;;;;;;;31.42;14.75;;;4.70;99.90;;;;;;4981710;28;20200;-86
2021/01/18 01:12:31;;;;;;;33.22;15.05;;;4.70;99.90;;;;;;4982550;28;20339;-86
2021/01/18 01:14:57;;;;;;;23.52;13.73;;;4.70;99.90;;;;;;4982189;28;20266;-87
2021/01/18 01:17:24;;;;;;;24.92;12.45;;;4.70;99.90;;;;;;4982017;28;20191;-82
2021/01/18 01:19:50;;;;;;;38.40;14.38;;;4.70;99.90;;;;;;4981592;28;20219;-86
2021/01/18 01:22:17;;;;;;;28.20;15.05;;;4.70;99.90;;;;;;4982018;28;20203;-87
2021/01/18 01:24:43;;;;;;;35.10;15.75;;;4.70;99.90;;;;;;4981808;28;20221;-85
2021/01/18 01:27:09;;;;;;;29.65;13.55;;;4.70;99.90;;;;;;4980404;28;20204;-86
2021/01/18 01:29:36;;;;;;;34.85;17.15;;;4.70;99.90;;;;;;4981150;28;20255;-86
2021/01/18 01:32:02;;;;;;;45.70;15.98;;;4.60;99.90;;;;;;4980588;28;20228;-86
2021/01/18 01:34:28;;;;;;;24.30;14.45;;;4.60;99.90;;;;;;4984033;28;20710;-86
2021/01/18 01:36:54;;;;;;;34.05;15.43;;;4.60;99.90;;;;;;4982419;28;20259;-85
2021/01/18 01:39:22;;;;;;;44.05;14.63;;;4.70;99.90;;;;;;4980548;28;20197;-86
2021/01/18 01:41:48;;;;;;;27.15;15.30;;;4.70;99.90;;;;;;4980570;28;20208;-86
2021/01/18 01:44:14;;;;;;;34.17;13.35;;;4.60;99.90;;;;;;4980394;28;20359;-87
2021/01/18 01:46:40;;;;;;;29.92;12.15;;;4.60;99.90;;;;;;4978173;28;20210;-84
2021/01/18 01:49:07;;;;;;;27.67;12.98;;;4.50;99.90;;;;;;4975763;28;20225;-85
2021/01/18 01:51:34;;;;;;;32.65;13.07;;;4.50;99.90;;;;;;4976109;28;20210;-85
2021/01/18 01:54:01;;;;;;;31.17;14.43;;;4.50;99.90;;;;;;4976785;28;20205;-84
2021/01/18 01:56:28;;;;;;;31.67;14.20;;;4.50;99.90;;;;;;4976521;28;20292;-85
2021/01/18 01:58:55;;;;;;;25.02;14.40;;;4.50;99.90;;;;;;4976531;28;20201;-86
2021/01/18 02:01:22;;;;;;;37.47;13.68;;;4.50;99.90;;;;;;4977132;28;20284;-85
2021/01/18 02:03:51;;;;;;;31.30;13.65;;;4.50;99.90;;;;;;4977411;28;20575;-85
2021/01/18 02:06:18;;;;;;;33.00;15.93;;;4.40;99.90;;;;;;4984044;28;20251;-85
2021/01/18 02:08:45;;;;;;;40.60;14.95;;;4.40;99.90;;;;;;4976688;28;20212;-84
2021/01/18 02:11:12;;;;;;;25.65;15.45;;;4.40;99.90;;;;;;4977919;28;20749;-85
2021/01/18 02:13:58;;;;;;;22.70;12.40;;;4.40;99.90;;;;;;4980521;28;20199;-83
2021/01/18 02:16:28;;;;;;;38.15;14.88;;;4.40;99.90;;;;;;4980713;28;20205;-85
2021/01/18 02:19:26;;;;;;;40.95;16.50;;;4.40;99.90;;;;;;4981088;28;20711;-84
2021/01/18 02:22:32;;;;;;;34.97;16.05;;;4.30;99.90;;;;;;4980884;28;20702;-85
2021/01/18 02:25:19;;;;;;;38.50;17.70;;;4.30;99.90;;;;;;4978847;28;20220;-85
2021/01/18 02:28:15;;;;;;;34.08;16.75;;;4.30;99.90;;;;;;4981303;28;20191;-84
2021/01/18 02:31:17;;;;;;;39.15;16.63;;;4.20;99.90;;;;;;4981402;28;20215;-84
2021/01/18 02:34:13;;;;;;;42.00;16.33;;;4.10;99.90;;;;;;4982116;28;20212;-85
2021/01/18 02:36:48;;;;;;;43.20;17.95;;;4.10;99.90;;;;;;4975670;28;20201;-85
2021/01/18 02:39:25;;;;;;;34.60;16.23;;;4.10;99.90;;;;;;4994996;28;20189;-85
2021/01/18 02:41:58;;;;;;;39.92;13.75;;;4.10;99.90;;;;;;4985191;28;20198;-86
2021/01/18 02:44:27;;;;;;;33.13;16.00;;;4.10;99.90;;;;;;4986138;28;20225;-87
2021/01/18 02:46:54;;;;;;;36.38;16.20;;;4.10;99.90;;;;;;4984472;28;20201;-87
2021/01/18 02:49:21;;;;;;;35.63;15.55;;;4.10;99.90;;;;;;4985660;28;20210;-86
2021/01/18 02:51:59;;;;;;;40.67;17.13;;;4.20;99.90;;;;;;4984303;28;20201;-87
2021/01/18 02:54:25;;;;;;;29.80;15.90;;;4.10;99.90;;;;;;4985031;28;20221;-86
2021/01/18 02:56:53;;;;;;;35.88;16.40;;;4.10;99.90;;;;;;4983876;28;20196;-87
2021/01/18 02:59:20;;;;;;;45.92;16.88;;;4.10;99.90;;;;;;4984613;28;20200;-87
2021/01/18 03:02:02;;;;;;;33.42;16.00;;;4.10;99.90;;;;;;4984461;28;20201;-86
2021/01/18 03:04:40;;;;;;;42.38;15.07;;;4.10;99.90;;;;;;4987895;28;20231;-86
2021/01/18 03:07:15;;;;;;;34.67;16.15;;;4.10;99.90;;;;;;4984819;28;20188;-85
2021/01/18 03:09:49;;;;;;;39.15;14.40;;;4.10;99.90;;;;;;4984280;28;20200;-85
2021/01/18 03:12:23;;;;;;;26.73;15.82;;;4.10;99.90;;;;;;4983963;28;20213;-86
2021/01/18 03:14:54;;;;;;;32.90;14.40;;;4.10;99.90;;;;;;4983133;28;20417;-86
2021/01/18 03:17:24;;;;;;;32.35;15.32;;;4.10;99.90;;;;;;4983637;28;20548;-84
2021/01/18 03:19:52;;;;;;;30.23;14.32;;;4.10;99.90;;;;;;4982211;28;20780;-86
2021/01/18 03:22:24;;;;;;;31.33;13.10;;;4.10;99.90;;;;;;4963648;28;20205;-86
2021/01/18 03:24:50;;;;;;;35.72;14.82;;;4.10;99.90;;;;;;4963676;28;20233;-86
2021/01/18 03:27:17;;;;;;;32.58;14.68;;;4.10;99.90;;;;;;4963489;29;20201;-85
2021/01/18 03:29:43;;;;;;;24.90;13.45;;;4.10;99.90;;;;;;4963682;29;20209;-86
2021/01/18 03:32:09;;;;;;;31.98;13.88;;;4.00;99.90;;;;;;4963763;29;20201;-85
2021/01/18 03:34:36;;;;;;;36.33;15.38;;;4.10;99.90;;;;;;4973425;28;20228;-85
2021/01/18 03:37:03;;;;;;;28.05;14.93;;;4.00;99.90;;;;;;4984095;28;20204;-86
2021/01/18 03:39:31;;;;;;;28.35;17.08;;;4.00;99.90;;;;;;4983253;28;20201;-85
2021/01/18 03:41:57;;;;;;;43.60;19.92;;;4.00;99.90;;;;;;4982858;28;20207;-84
2021/01/18 03:44:24;;;;;;;32.97;17.00;;;4.00;99.90;;;;;;4982553;28;20564;-87
2021/01/18 03:46:50;;;;;;;32.65;18.15;;;4.00;99.90;;;;;;4982585;28;20206;-84
2021/01/18 03:49:16;;;;;;;40.92;18.27;;;4.00;99.90;;;;;;4981108;28;20677;-82
2021/01/18 03:51:42;;;;;;;38.47;18.83;;;4.00;99.90;;;;;;4986003;28;20264;-85
2021/01/18 03:54:10;;;;;;;31.08;19.65;;;4.00;99.90;;;;;;4992134;28;20247;-85
2021/01/18 03:56:40;;;;;;;41.42;18.48;;;4.00;99.90;;;;;;4991703;28;20200;-85
2021/01/18 03:59:07;;;;;;;41.38;20.63;;;4.10;99.90;;;;;;4991389;28;20205;-85
2021/01/18 04:01:37;;;;;;;40.22;21.23;;;4.10;99.90;;;;;;4991875;28;20200;-85
2021/01/18 04:04:04;;;;;;;38.20;20.52;;;4.10;99.90;;;;;;4990361;28;20228;-86
2021/01/18 04:06:35;;;;;;;39.30;20.25;;;4.10;99.90;;;;;;4994775;28;20730;-84
2021/01/18 04:09:01;;;;;;;44.22;20.80;;;4.10;99.90;;;;;;4991324;28;20201;-84
2021/01/18 04:11:28;;;;;;;45.15;19.60;;;4.10;99.90;;;;;;4991555;28;20204;-85
2021/01/18 04:13:55;;;;;;;44.35;21.30;;;4.10;99.90;;;;;;4990408;28;20257;-85
2021/01/18 04:16:21;;;;;;;48.97;21.05;;;4.10;99.90;;;;;;4981523;28;20201;-86
2021/01/18 04:18:47;;;;;;;40.47;20.80;;;4.10;99.90;;;;;;4982072;28;20610;-86
2021/01/18 04:21:16;;;;;;;45.45;21.73;;;4.10;99.90;;;;;;4981800;28;20218;-86
2021/01/18 04:23:43;;;;;;;40.83;20.90;;;4.20;99.90;;;;;;4981931;28;20213;-83
2021/01/18 04:26:09;;;;;;;40.13;21.50;;;4.10;99.90;;;;;;4291320;28;10000723;-83
2021/01/18 04:28:35;;;;;;;40.72;22.83;;;4.20;99.90;;;;;;4977195;28;20437;-82
2021/01/18 04:31:03;;;;;;;36.72;21.80;;;4.10;99.90;;;;;;4978796;28;20209;-82
2021/01/18 04:33:29;;;;;;;44.20;20.33;;;4.10;99.90;;;;;;4979487;28;20256;-83
2021/01/18 04:35:56;;;;;;;41.92;22.30;;;4.20;99.90;;;;;;4985182;28;20236;-82
2021/01/18 04:38:24;;;;;;;42.05;23.63;;;4.20;99.90;;;;;;4979092;28;20196;-83
2021/01/18 04:40:50;;;;;;;36.13;22.65;;;4.10;99.90;;;;;;4978914;28;20630;-83
2021/01/18 04:43:18;;;;;;;38.08;19.25;;;4.10;99.90;;;;;;4981903;28;20227;-82
2021/01/18 04:45:45;;;;;;;32.92;20.80;;;4.10;99.90;;;;;;4988915;28;20225;-81
2021/01/18 04:48:13;;;;;;;44.35;20.80;;;4.10;99.90;;;;;;4988192;28;20184;-82
2021/01/18 04:50:40;;;;;;;43.28;21.70;;;4.10;99.90;;;;;;4988372;28;20204;-83
2021/01/18 04:53:14;;;;;;;29.73;18.25;;;4.10;99.90;;;;;;4990377;28;20211;-83
2021/01/18 04:55:57;;;;;;;34.85;18.65;;;4.10;99.90;;;;;;4987294;28;20902;-83
2021/01/18 04:58:29;;;;;;;47.88;22.17;;;4.10;99.90;;;;;;4988146;28;20224;-82
2021/01/18 05:00:56;;;;;;;34.45;20.20;;;4.10;99.90;;;;;;4979365;28;20201;-82
2021/01/18 05:03:24;;;;;;;34.33;20.50;;;4.10;99.90;;;;;;4978977;28;20339;-84
2021/01/18 05:06:26;;;;;;;33.85;19.52;;;4.10;99.90;;;;;;4985658;28;20590;-81
2021/01/18 05:09:27;;;;;;;38.15;21.80;;;4.20;99.90;;;;;;4971425;28;20670;-83
2021/01/18 05:11:54;;;;;;;33.03;17.83;;;4.20;99.90;;;;;;4978818;28;20211;-83
2021/01/18 05:14:20;;;;;;;48.28;21.20;;;4.20;99.90;;;;;;4978358;28;20275;-83
2021/01/18 05:16:53;;;;;;;40.67;21.67;;;4.20;99.90;;;;;;4978550;28;20201;-83
2021/01/18 05:19:20;;;;;;;36.67;21.55;;;4.20;99.90;;;;;;4970112;28;20224;-82
2021/01/18 05:21:48;;;;;;;39.45;20.42;;;4.20;99.90;;;;;;4977818;28;20689;-82
2021/01/18 05:24:15;;;;;;;42.90;21.88;;;4.20;99.90;;;;;;4978613;28;20946;-83
2021/01/18 05:26:41;;;;;;;39.08;21.02;;;4.20;99.90;;;;;;4978220;28;20305;-82
2021/01/18 05:29:08;;;;;;;39.95;20.17;;;4.20;99.90;;;;;;4978986;28;20270;-83
2021/01/18 05:31:36;;;;;;;34.35;17.85;;;4.20;99.90;;;;;;4979863;28;20197;-87
2021/01/18 05:34:04;;;;;;;41.72;21.50;;;4.20;99.90;;;;;;4980799;28;20221;-87
2021/01/18 05:36:36;;;;;;;36.13;20.75;;;4.20;99.90;;;;;;4986121;28;20622;-87
2021/01/18 05:39:10;;;;;;;36.70;21.42;;;4.20;99.90;;;;;;4980421;28;20201;-87
2021/01/18 05:41:37;;;;;;;42.83;20.40;;;4.20;99.90;;;;;;4980804;28;20200;-87
2021/01/18 05:44:05;;;;;;;39.25;20.90;;;4.30;99.90;;;;;;4980637;28;20217;-87
2021/01/18 05:46:33;;;;;;;38.97;19.10;;;4.30;99.90;;;;;;4981481;28;20205;-87
2021/01/18 05:49:07;;;;;;;34.60;19.25;;;4.30;99.90;;;;;;4984652;28;20583;-87
2021/01/18 05:51:35;;;;;;;33.15;17.73;;;4.30;99.90;;;;;;4984762;28;20224;-86
2021/01/18 05:54:03;;;;;;;28.65;18.95;;;4.20;99.90;;;;;;4985151;28;20220;-86
2021/01/18 05:56:42;;;;;;;33.22;17.05;;;4.10;99.90;;;;;;4984254;28;20230;-86
2021/01/18 05:59:14;;;;;;;29.90;17.45;;;4.20;99.90;;;;;;4985113;28;20208;-85
2021/01/18 06:01:41;;;;;;;32.05;18.02;;;4.20;99.90;;;;;;4984606;28;20220;-87
2021/01/18 06:04:09;;;;;;;32.70;18.65;;;4.20;99.90;;;;;;4984194;28;20244;-84
2021/01/18 06:06:37;;;;;;;34.75;16.55;;;4.20;99.90;;;;;;4983394;28;20194;-86
2021/01/18 06:09:04;;;;;;;28.85;16.48;;;4.20;99.90;;;;;;4984799;28;20209;-87
2021/01/18 06:11:31;;;;;;;41.03;19.92;;;4.20;99.90;;;;;;4984973;28;20212;-87
2021/01/18 06:14:01;;;;;;;41.53;18.73;;;4.20;99.90;;;;;;4983545;28;20207;-85
2021/01/18 06:16:28;;;;;;;44.47;16.77;;;4.20;99.90;;;;;;4982767;28;20251;-87
2021/01/18 06:19:02;;;;;;;33.80;15.93;;;4.10;99.90;;;;;;4984137;28;20221;-84
2021/01/18 06:21:43;;;;;;;56.75;15.93;;;4.10;99.90;;;;;;4982672;28;20218;-87
2021/01/18 06:24:27;;;;;;;35.55;16.95;;;4.10;99.90;;;;;;4983688;28;20224;-85
2021/01/18 06:26:54;;;;;;;34.28;14.93;;;4.10;99.90;;;;;;4983434;28;20668;-86
2021/01/18 06:29:40;;;;;;;32.35;16.52;;;4.10;99.90;;;;;;4983398;28;20205;-85
2021/01/18 06:32:08;;;;;;;27.75;14.35;;;4.10;99.90;;;;;;4983769;28;20624;-86
2021/01/18 06:34:35;;;;;;;47.38;18.00;;;4.10;99.90;;;;;;4988089;28;20232;-85
2021/01/18 06:37:02;;;;;;;29.45;16.13;;;4.10;99.90;;;;;;4985384;28;20643;-87
2021/01/18 06:39:30;;;;;;;32.15;15.80;;;4.10;99.90;;;;;;4983904;28;20286;-85
2021/01/18 06:41:59;;;;;;;33.20;17.10;;;4.10;99.90;;;;;;4983137;28;20278;-86
2021/01/18 06:44:43;;;;;;;29.38;17.23;;;4.10;99.90;;;;;;4984116;28;20276;-87
2021/01/18 06:47:27;;;;;;;36.70;17.48;;;4.20;99.90;;;;;;4995222;28;20290;-87
2021/01/18 06:49:55;;;;;;;42.35;18.65;;;4.10;99.90;;;;;;4984984;28;20681;-85
2021/01/18 06:52:27;;;;;;;32.13;17.60;;;4.10;99.90;;;;;;4984887;28;20197;-87
2021/01/18 06:55:06;;;;;;;31.55;16.02;;;4.20;99.90;;;;;;4985124;28;20560;-87
2021/01/18 06:58:19;;;;;;;25.00;16.90;;;4.20;99.90;;;;;;4984059;28;20201;-86
2021/01/18 07:00:47;;;;;;;31.50;17.80;;;4.20;99.90;;;;;;4969742;28;20230;-86
2021/01/18 07:03:41;;;;;;;36.35;15.95;;;4.10;99.90;;;;;;4984265;28;20668;-86
2021/01/18 07:06:27;;;;;;;34.25;19.27;;;4.20;99.90;;;;;;4983280;28;20220;-88
2021/01/18 07:08:58;;;;;;;37.35;20.30;;;4.20;99.90;;;;;;4983990;28;20194;-86
2021/01/18 07:11:25;;;;;;;40.65;20.65;;;4.20;99.90;;;;;;4984531;28;20212;-87
2021/01/18 07:13:51;;;;;;;40.17;20.33;;;4.20;99.90;;;;;;4986258;28;20208;-86
2021/01/18 07:16:19;;;;;;;44.15;22.50;;;4.20;99.90;;;;;;4985611;28;20599;-85
2021/01/18 07:18:54;;;;;;;38.22;22.40;;;4.20;99.90;;;;;;4980526;28;20212;-85
2021/01/18 07:21:26;;;;;;;39.65;22.17;;;4.20;99.90;;;;;;4979579;28;20188;-84
2021/01/18 07:23:58;;;;;;;50.00;23.52;;;4.20;99.90;;;;;;4981188;28;20197;-85
2021/01/18 07:26:53;;;;;;;34.42;20.30;;;4.20;99.90;;;;;;4982519;28;20187;-85
2021/01/18 07:29:21;;;;;;;35.42;20.13;;;4.30;99.90;;;;;;4983952;28;20201;-84
2021/01/18 07:31:50;;;;;;;49.13;23.13;;;4.30;99.90;;;;;;4985503;28;20209;-86
2021/01/18 07:34:18;;;;;;;51.92;21.40;;;4.30;99.90;;;;;;4986243;28;20251;-84
2021/01/18 07:36:45;;;;;;;50.67;24.35;;;4.20;99.90;;;;;;4988147;28;20196;-84
2021/01/18 07:39:28;;;;;;;41.35;22.55;;;4.30;99.90;;;;;;4984375;28;20246;-83
2021/01/18 07:41:54;;;;;;;41.05;21.95;;;4.30;99.90;;;;;;4985833;28;20201;-85
2021/01/18 07:44:45;;;;;;;36.28;21.80;;;4.30;99.90;;;;;;4985829;28;20234;-85
2021/01/18 07:47:13;;;;;;;41.65;21.50;;;4.30;99.90;;;;;;4984235;28;20194;-84
2021/01/18 07:49:41;;;;;;;46.58;24.00;;;4.40;99.90;;;;;;4987664;28;20200;-85
2021/01/18 07:52:31;;;;;;;38.63;22.45;;;4.30;99.90;;;;;;4987509;28;20203;-85
2021/01/18 07:55:00;;;;;;;48.50;22.50;;;4.30;99.90;;;;;;4986644;28;20220;-84
2021/01/18 07:57:34;;;;;;;45.80;23.00;;;4.30;99.90;;;;;;4985643;28;20295;-84
2021/01/18 08:00:23;;;;;;;49.63;23.35;;;4.30;99.90;;;;;;4986806;28;20201;-86
2021/01/18 08:02:51;;;;;;;37.55;19.73;;;4.30;99.90;;;;;;4986590;28;20201;-85
2021/01/18 08:05:25;;;;;;;39.08;21.00;;;4.30;99.90;;;;;;4994409;28;20239;-85
2021/01/18 08:08:06;;;;;;;37.40;20.38;;;4.30;99.90;;;;;;4988572;28;20227;-84
2021/01/18 08:10:56;;;;;;;44.60;19.70;;;4.40;99.90;;;;;;4993839;28;20215;-86
2021/01/18 08:13:51;;;;;;;49.97;22.13;;;4.40;99.90;;;;;;4998457;28;20204;-87
2021/01/18 08:16:20;;;;;;;46.13;19.67;;;4.40;99.90;;;;;;4995604;28;20186;-84
2021/01/18 08:18:52;;;;;;;37.05;19.20;;;4.50;99.90;;;;;;4984936;28;20197;-86
2021/01/18 08:21:58;;;;;;;46.22;20.33;;;4.50;99.90;;;;;;4986841;28;20199;-85
2021/01/18 08:24:55;;;;;;;39.22;17.95;;;4.50;99.90;;;;;;4985861;28;20227;-86
2021/01/18 08:27:47;;;;;;;28.30;15.48;;;4.60;99.90;;;;;;4984790;28;20205;-85
2021/01/18 08:30:34;;;;;;;22.10;16.55;;;4.60;99.90;;;;;;4984822;28;20203;-86
2021/01/18 08:33:08;;;;;;;41.53;18.02;;;4.60;99.90;;;;;;4976775;28;20555;-83
2021/01/18 08:35:42;;;;;;;32.22;17.20;;;4.70;99.90;;;;;;4991802;28;20225;-86
2021/01/18 08:38:09;;;;;;;32.67;17.33;;;4.60;99.90;;;;;;4984913;28;20204;-85
2021/01/18 08:40:42;;;;;;;33.35;17.23;;;4.70;99.90;;;;;;4984911;28;20228;-85
2021/01/18 08:43:10;;;;;;;27.05;14.05;;;4.80;99.90;;;;;;4983468;28;20186;-85
2021/01/18 08:45:39;;;;;;;25.00;15.57;;;4.80;99.90;;;;;;4985347;28;20213;-84
2021/01/18 08:48:08;;;;;;;38.67;16.80;;;4.80;99.90;;;;;;4985158;28;20843;-85
2021/01/18 08:50:43;;;;;;;34.40;17.92;;;4.80;99.90;;;;;;4983844;28;20327;-85
2021/01/18 08:53:34;;;;;;;26.85;16.80;;;4.80;99.90;;;;;;4982171;28;20662;-85
2021/01/18 08:56:02;;;;;;;33.55;17.40;;;4.70;99.90;;;;;;4968087;28;20371;-84
2021/01/18 08:58:43;;;;;;;37.97;17.50;;;4.70;99.90;;;;;;4982008;28;20216;-85
2021/01/18 09:01:18;;;;;;;36.88;19.10;;;4.70;99.90;;;;;;4982892;28;20181;-86
2021/01/18 09:03:44;;;;;;;40.47;18.98;;;4.70;99.90;;;;;;4983087;28;20351;-85
2021/01/18 09:06:12;;;;;;;43.45;19.02;;;4.70;99.90;;;;;;4990353;28;20213;-84
2021/01/18 09:08:40;;;;;;;34.88;18.55;;;4.70;99.90;;;;;;4982758;28;20243;-85
2021/01/18 09:11:08;;;;;;;46.33;21.23;;;4.70;99.90;;;;;;4983454;28;20193;-85
2021/01/18 09:13:36;;;;;;;32.33;19.95;;;4.70;99.90;;;;;;4982961;28;20623;-83
2021/01/18 09:16:06;;;;;;;36.85;19.60;;;4.70;99.90;;;;;;4982191;28;20296;-86
2021/01/18 09:18:33;;;;;;;48.00;20.90;;;4.70;99.90;;;;;;4983330;28;20208;-85
2021/01/18 09:21:01;;;;;;;42.05;20.13;;;4.80;99.90;;;;;;4981840;28;20202;-83
2021/01/18 09:23:27;;;;;;;35.65;19.25;;;4.70;99.90;;;;;;4982391;28;20193;-85
2021/01/18 09:26:02;;;;;;;34.40;18.38;;;4.70;99.90;;;;;;4982417;28;20225;-85
2021/01/18 09:28:28;;;;;;;35.05;17.90;;;4.70;99.90;;;;;;4982246;28;20203;-85
2021/01/18 09:30:55;;;;;;;28.15;17.52;;;4.60;99.90;;;;;;4982923;28;20198;-86
2021/01/18 09:33:26;;;;;;;36.35;18.13;;;4.70;99.90;;;;;;4983656;28;20196;-84
2021/01/18 09:35:52;;;;;;;32.88;19.20;;;4.70;99.90;;;;;;4988207;28;20711;-84
2021/01/18 09:38:19;;;;;;;38.58;20.38;;;4.70;99.90;;;;;;4983431;28;20200;-85
2021/01/18 09:40:45;;;;;;;50.85;21.23;;;4.70;99.90;;;;;;4982804;28;20197;-85
2021/01/18 09:43:18;;;;;;;48.58;19.73;;;4.80;99.90;;;;;;4982280;28;20261;-85
2021/01/18 09:45:44;;;;;;;38.25;20.40;;;4.80;99.90;;;;;;4982178;28;20218;-81
2021/01/18 09:48:11;;;;;;;31.88;15.88;;;4.80;99.90;;;;;;4981619;28;20232;-85
2021/01/18 09:50:41;;;;;;;34.80;18.23;;;4.80;99.90;;;;;;4982505;28;20201;-84
2021/01/18 09:53:09;;;;;;;38.20;21.20;;;4.80;99.90;;;;;;4982256;28;20228;-83
2021/01/18 09:55:41;;;;;;;29.45;18.40;;;4.90;99.90;;;;;;4981932;28;20217;-85
2021/01/18 09:58:12;;;;;;;33.60;17.58;;;4.90;99.90;;;;;;4981246;28;20249;-84
2021/01/18 10:00:42;;;;;;;35.80;18.30;;;4.90;99.90;;;;;;4981554;28;20198;-83
2021/01/18 10:03:10;;;;;;;37.78;18.13;;;4.90;99.90;;;;;;4982666;28;20667;-80
2021/01/18 10:05:41;;;;;;;38.15;16.95;;;4.90;99.90;;;;;;4988238;28;20225;-83
2021/01/18 10:08:12;;;;;;;43.65;18.10;;;4.90;99.90;;;;;;4980340;28;20197;-85
2021/01/18 10:10:43;;;;;;;32.38;18.02;;;5.00;99.90;;;;;;4981346;28;20177;-84
2021/01/18 10:13:14;;;;;;;38.15;18.73;;;5.00;99.90;;;;;;4980185;28;20623;-85
2021/01/18 10:15:40;;;;;;;31.92;15.93;;;5.00;99.90;;;;;;4980263;28;20309;-84
2021/01/18 10:18:06;;;;;;;34.22;15.80;;;5.10;99.90;;;;;;4979606;28;20205;-84
2021/01/18 10:20:33;;;;;;;43.33;17.35;;;5.00;99.90;;;;;;4980685;28;20205;-84
2021/01/18 10:23:14;;;;;;;35.97;14.82;;;5.10;99.90;;;;;;4980240;28;20305;-85
2021/01/18 10:25:41;;;;;;;33.90;15.98;;;5.10;99.90;;;;;;4980401;28;20225;-85
2021/01/18 10:28:17;;;;;;;29.95;15.68;;;5.10;99.90;;;;;;4980135;28;20229;-85
2021/01/18 10:30:43;;;;;;;22.55;14.77;;;5.10;99.90;;;;;;4980142;28;20215;-84
2021/01/18 10:33:16;;;;;;;27.63;16.13;;;5.20;99.90;;;;;;4982246;28;20207;-86
2021/01/18 10:35:42;;;;;;;29.27;15.88;;;5.10;99.90;;;;;;4990674;28;20228;-83
2021/01/18 10:38:15;;;;;;;28.08;16.95;;;5.00;99.90;;;;;;4982891;28;20208;-85
2021/01/18 10:40:43;;;;;;;39.25;18.10;;;5.10;99.90;;;;;;4983463;28;20201;-84
2021/01/18 10:43:12;;;;;;;32.05;16.75;;;5.10;99.90;;;;;;4983129;28;20248;-84
2021/01/18 10:45:42;;;;;;;30.50;17.08;;;5.10;99.90;;;;;;4983776;28;20229;-84
2021/01/18 10:48:10;;;;;;;32.33;17.45;;;5.20;99.90;;;;;;4983461;28;20229;-83
2021/01/18 10:50:36;;;;;;;29.98;15.95;;;5.20;99.90;;;;;;4982846;28;20250;-81
2021/01/18 10:53:05;;;;;;;38.05;16.42;;;5.30;99.90;;;;;;4982525;28;20204;-80
2021/01/18 10:55:32;;;;;;;31.80;14.82;;;5.30;99.90;;;;;;4982705;28;20243;-85
2021/01/18 10:57:59;;;;;;;31.25;15.43;;;5.30;99.90;;;;;;4982605;28;20209;-85
2021/01/18 11:00:27;;;;;;;27.00;15.60;;;5.30;99.90;;;;;;4982786;28;20201;-84
2021/01/18 11:02:56;;;;;;;31.77;12.60;;;5.40;99.90;;;;;;4982619;28;20193;-83
2021/01/18 11:05:33;;;;;;;26.60;11.57;;;5.40;99.90;;;;;;4989481;28;20667;-84
2021/01/18 11:08:01;;;;;;;24.58;12.45;;;5.40;99.90;;;;;;4980411;28;20247;-84
2021/01/18 11:10:28;;;;;;;23.50;11.98;;;5.50;99.90;;;;;;4983221;28;20683;-83
2021/01/18 11:13:06;;;;;;;27.52;13.65;;;5.40;99.90;;;;;;4982120;28;20288;-84
2021/01/18 11:15:36;;;;;;;25.65;11.30;;;5.40;99.90;;;;;;4982047;28;20272;-85
2021/01/18 11:18:03;;;;;;;22.60;11.90;;;5.40;99.90;;;;;;4990660;28;20215;-84
2021/01/18 11:20:30;;;;;;;19.85;11.10;;;5.70;99.90;;;;;;4989098;28;20201;-84
2021/01/18 11:22:57;;;;;;;25.17;11.77;;;5.70;99.90;;;;;;4982529;28;20316;-83
2021/01/18 11:25:23;;;;;;;25.05;11.25;;;5.80;99.90;;;;;;4982428;28;20221;-83
2021/01/18 11:27:50;;;;;;;28.77;11.27;;;5.70;99.90;;;;;;4982349;28;20197;-84
2021/01/18 11:30:18;;;;;;;25.45;9.50;;;5.60;99.90;;;;;;4982609;28;20306;-83
2021/01/18 11:32:44;;;;;;;21.45;10.45;;;5.50;99.90;;;;;;4977066;28;20204;-85
2021/01/18 11:35:12;;;;;;;17.40;10.80;;;5.40;99.90;;;;;;4986728;28;20232;-86
2021/01/18 11:37:40;;;;;;;21.42;10.70;;;5.30;99.90;;;;;;4980893;28;20280;-86
2021/01/18 11:40:09;;;;;;;18.65;9.75;;;5.30;99.90;;;;;;4961457;29;20202;-85
2021/01/18 11:42:35;;;;;;;19.80;8.70;;;5.30;99.90;;;;;;4961506;29;20257;-85
2021/01/18 11:45:03;;;;;;;13.80;8.18;;;5.30;99.90;;;;;;4959409;28;20222;-83
2021/01/18 11:47:35;;;;;;;21.95;9.18;;;5.30;99.90;;;;;;4961825;29;20198;-85
2021/01/18 11:50:01;;;;;;;23.25;10.63;;;5.30;99.90;;;;;;4965049;28;20202;-84
2021/01/18 11:52:27;;;;;;;19.08;8.98;;;5.40;99.90;;;;;;4982356;28;20194;-86
2021/01/18 11:54:53;;;;;;;15.02;7.22;;;5.60;99.90;;;;;;4979802;28;20232;-86
2021/01/18 11:57:20;;;;;;;13.23;6.78;;;5.60;99.90;;;;;;4980812;28;20212;-86
2021/01/18 11:59:46;;;;;;;15.52;7.78;;;5.60;99.90;;;;;;4980357;28;20213;-86
2021/01/18 12:02:12;;;;;;;22.38;8.65;;;5.60;99.90;;;;;;4980306;28;20201;-87
2021/01/18 12:04:40;;;;;;;16.58;7.72;;;5.80;99.90;;;;;;4985650;28;20252;-86
2021/01/18 12:07:10;;;;;;;16.27;7.18;;;5.90;99.90;;;;;;4989252;28;20193;-86
2021/01/18 12:09:37;;;;;;;14.85;6.95;;;6.00;99.90;;;;;;4979299;28;20189;-86
2021/01/18 12:12:04;;;;;;;18.42;7.10;;;6.00;99.90;;;;;;4978535;28;20571;-85
2021/01/18 12:14:31;;;;;;;18.00;7.45;;;6.10;99.90;;;;;;4979034;28;20733;-85
2021/01/18 12:17:01;;;;;;;8.63;5.93;;;6.20;99.90;;;;;;4978893;28;20200;-85
2021/01/18 12:19:27;;;;;;;10.23;5.65;;;6.10;99.90;;;;;;4979400;28;20207;-85
2021/01/18 12:21:54;;;;;;;12.70;6.30;;;6.10;99.90;;;;;;4978620;28;20284;-86
2021/01/18 12:24:21;;;;;;;13.05;6.68;;;6.10;99.90;;;;;;4978737;28;20226;-84
2021/01/18 12:26:50;;;;;;;9.98;4.53;;;6.20;99.90;;;;;;4978282;28;20189;-85
2021/01/18 12:29:17;;;;;;;12.25;5.05;;;6.20;99.90;;;;;;4970912;28;20652;-85
2021/01/18 12:31:43;;;;;;;8.98;5.63;;;6.10;99.90;;;;;;4978261;28;20567;-85
2021/01/18 12:34:09;;;;;;;7.72;5.18;;;6.10;99.90;;;;;;4980447;28;20217;-85
2021/01/18 12:36:36;;;;;;;16.40;5.90;;;6.00;99.90;;;;;;4983351;28;20197;-85
2021/01/18 12:39:05;;;;;;;6.45;5.35;;;6.00;99.90;;;;;;4979023;28;20559;-84
2021/01/18 12:41:31;;;;;;;14.57;5.88;;;6.00;99.90;;;;;;4978981;28;20221;-85
2021/01/18 12:43:57;;;;;;;16.05;6.38;;;6.00;99.90;;;;;;4978050;28;20247;-85
2021/01/18 12:46:23;;;;;;;15.20;5.20;;;6.10;99.90;;;;;;4976077;28;20710;-84
2021/01/18 12:48:50;;;;;;;12.77;5.88;;;6.10;99.90;;;;;;4977192;28;20206;-85
2021/01/18 12:51:16;;;;;;;11.95;5.38;;;6.10;99.90;;;;;;4976709;28;20615;-83
2021/01/18 12:53:43;;;;;;;15.85;4.40;;;6.10;99.90;;;;;;4977059;28;20202;-83
2021/01/18 12:56:11;;;;;;;16.25;6.95;;;6.10;99.90;;;;;;4976728;28;20221;-85